createdAt,value
2022-08-21T00:00:04.497Z,90.39
2022-08-21T00:01:07.247Z,90
2022-08-21T00:02:04.604Z,90.09
2022-08-21T00:03:04.470Z,90.09
2022-08-21T00:04:05.022Z,90.19
2022-08-21T00:05:04.464Z,90.09
2022-08-21T00:06:04.198Z,89.72
2022-08-21T00:07:04.440Z,90.09
2022-08-21T00:08:04.181Z,89.52
2022-08-21T00:09:08.836Z,89.86
2022-08-21T00:10:04.171Z,89.28
2022-08-21T00:11:04.418Z,89.23
2022-08-21T00:12:05.731Z,88.95
2022-08-21T00:13:04.404Z,88.9
2022-08-21T00:14:04.149Z,88.76
2022-08-21T00:15:04.391Z,88.9
2022-08-21T00:16:04.394Z,88.51
2022-08-21T00:17:04.131Z,88.7
2022-08-21T00:18:04.130Z,88.42
2022-08-21T00:19:04.370Z,88.42
2022-08-21T00:20:04.364Z,88.51
2022-08-21T00:21:04.357Z,88.23
2022-08-21T00:22:04.351Z,88.23
2022-08-21T00:23:05.126Z,88.23
2022-08-21T00:24:05.116Z,88.32
2022-08-21T00:25:05.809Z,88.13
2022-08-21T00:26:05.799Z,87.84
2022-08-21T00:27:06.047Z,87.74
2022-08-21T00:28:06.053Z,87.84
2022-08-21T00:29:06.044Z,87.84
2022-08-21T00:30:06.052Z,87.84
2022-08-21T00:31:06.016Z,87.55
2022-08-21T00:32:06.004Z,87.84
2022-08-21T00:33:06.004Z,87.55
2022-08-21T00:34:06.002Z,87.94
2022-08-21T00:35:05.989Z,88.23
2022-08-21T00:36:05.982Z,87.84
2022-08-21T00:37:05.989Z,87.84
2022-08-21T00:38:05.966Z,87.17
2022-08-21T00:39:05.968Z,87.46
2022-08-21T00:40:06.143Z,87.08
2022-08-21T00:41:39.581Z,86.79
2022-08-21T00:42:06.069Z,86.5
2022-08-21T00:43:05.830Z,86.54
2022-08-21T00:44:05.685Z,86.5
2022-08-21T00:45:05.673Z,86.83
2022-08-21T00:46:05.681Z,86.45
2022-08-21T00:47:05.918Z,86.54
2022-08-21T00:48:05.906Z,86.54
2022-08-21T00:49:05.651Z,86.54
2022-08-21T00:50:05.894Z,86.45
2022-08-21T00:51:05.637Z,86.54
2022-08-21T00:52:05.882Z,86.74
2022-08-21T00:53:05.625Z,86.83
2022-08-21T00:54:05.636Z,86.74
2022-08-21T00:55:05.874Z,86.74
2022-08-21T00:56:06.098Z,85.97
2022-08-21T00:57:05.842Z,86.35
2022-08-21T00:58:05.848Z,85.97
2022-08-21T00:59:05.843Z,86.07
2022-08-21T01:00:07.488Z,86.64
2022-08-21T01:01:10.698Z,86.74
2022-08-21T01:02:05.571Z,86.64
2022-08-21T01:03:09.849Z,85.97
2022-08-21T01:04:05.557Z,86.74
2022-08-21T01:05:05.565Z,86.54
2022-08-21T01:06:05.550Z,86.93
2022-08-21T01:07:05.799Z,86.64
2022-08-21T01:08:05.803Z,86.74
2022-08-21T01:09:05.528Z,86.83
2022-08-21T01:10:06.859Z,86.64
2022-08-21T01:11:05.785Z,86.16
2022-08-21T01:12:05.518Z,86.07
2022-08-21T01:13:05.756Z,85.97
2022-08-21T01:14:05.760Z,85.78
2022-08-21T01:15:05.505Z,85.78
2022-08-21T01:16:05.746Z,85.78
2022-08-21T01:17:05.737Z,85.78
2022-08-21T01:18:05.736Z,85.88
2022-08-21T01:19:05.723Z,85.97
2022-08-21T01:20:05.720Z,85.78
2022-08-21T01:21:05.721Z,85.88
2022-08-21T01:22:05.725Z,85.58
2022-08-21T01:23:05.452Z,85.58
2022-08-21T01:24:05.442Z,85.58
2022-08-21T01:25:05.685Z,85.78
2022-08-21T01:26:05.763Z,85.58
2022-08-21T01:27:05.673Z,85.49
2022-08-21T01:28:05.683Z,85.39
2022-08-21T01:29:05.454Z,85.49
2022-08-21T01:30:08.784Z,85.49
2022-08-21T01:31:05.654Z,85.11
2022-08-21T01:32:05.652Z,85.39
2022-08-21T01:33:05.644Z,85.39
2022-08-21T01:34:05.651Z,85.39
2022-08-21T01:35:05.645Z,85.49
2022-08-21T01:36:05.372Z,85.39
2022-08-21T01:37:05.618Z,85.39
2022-08-21T01:38:05.358Z,85.39
2022-08-21T01:39:05.607Z,85.39
2022-08-21T01:40:06.379Z,84.72
2022-08-21T01:41:06.284Z,84.63
2022-08-21T01:42:06.286Z,84.72
2022-08-21T01:43:06.033Z,84.91
2022-08-21T01:44:06.277Z,84.44
2022-08-21T01:45:06.015Z,84.44
2022-08-21T01:46:06.267Z,84.53
2022-08-21T01:47:06.249Z,84.63
2022-08-21T01:48:06.245Z,84.53
2022-08-21T01:49:07.235Z,84.63
2022-08-21T01:50:07.248Z,83.95
2022-08-21T01:51:07.240Z,84.63
2022-08-21T01:52:09.476Z,84.15
2022-08-21T01:53:06.951Z,84.34
2022-08-21T01:54:07.204Z,83.76
2022-08-21T01:55:07.195Z,83.95
2022-08-21T01:56:14.643Z,84.25
2022-08-21T01:57:06.929Z,84.44
2022-08-21T01:58:07.182Z,84.05
2022-08-21T01:59:06.920Z,84.15
2022-08-21T02:00:06.919Z,84.25
2022-08-21T02:01:07.061Z,84.15
2022-08-21T02:02:07.160Z,84.34
2022-08-21T02:03:06.903Z,83.67
2022-08-21T02:04:06.885Z,83.76
2022-08-21T02:05:06.894Z,83.86
2022-08-21T02:06:07.126Z,83.95
2022-08-21T02:07:10.847Z,83.58
2022-08-21T02:08:06.868Z,83.38
2022-08-21T02:09:06.854Z,83.58
2022-08-21T02:10:07.102Z,83.67
2022-08-21T02:11:07.104Z,83.29
2022-08-21T02:12:07.101Z,83.29
2022-08-21T02:13:07.115Z,83
2022-08-21T02:14:07.076Z,83.19
2022-08-21T02:15:07.074Z,83.09
2022-08-21T02:16:07.064Z,83.48
2022-08-21T02:17:11.862Z,83.67
2022-08-21T02:18:07.055Z,83.38
2022-08-21T02:19:07.075Z,83.58
2022-08-21T02:20:07.042Z,83.58
2022-08-21T02:21:07.045Z,83.29
2022-08-21T02:22:06.777Z,82.71
2022-08-21T02:23:07.031Z,83.67
2022-08-21T02:24:06.765Z,83.58
2022-08-21T02:25:07.032Z,83.48
2022-08-21T02:26:08.032Z,83.58
2022-08-21T02:27:07.213Z,82.9
2022-08-21T02:28:06.996Z,82.9
2022-08-21T02:29:06.995Z,83
2022-08-21T02:30:06.729Z,82.62
2022-08-21T02:31:06.740Z,82.71
2022-08-21T02:32:06.741Z,82.62
2022-08-21T02:33:07.495Z,82.71
2022-08-21T02:34:07.488Z,82.9
2022-08-21T02:35:07.747Z,83.38
2022-08-21T02:36:07.726Z,83.29
2022-08-21T02:37:07.732Z,83.38
2022-08-21T02:38:07.724Z,83.19
2022-08-21T02:39:07.716Z,82.81
2022-08-21T02:40:07.811Z,82.9
2022-08-21T02:41:07.445Z,82.81
2022-08-21T02:42:07.443Z,82.81
2022-08-21T02:43:07.437Z,82.81
2022-08-21T02:44:07.680Z,82.81
2022-08-21T02:45:07.422Z,83
2022-08-21T02:46:07.413Z,83.09
2022-08-21T02:47:07.410Z,83.58
2022-08-21T02:48:07.656Z,83.29
2022-08-21T02:49:07.665Z,82.81
2022-08-21T02:50:07.652Z,83
2022-08-21T02:51:07.657Z,82.9
2022-08-21T02:52:07.645Z,82.81
2022-08-21T02:53:07.375Z,82.81
2022-08-21T02:54:07.627Z,83.09
2022-08-21T02:55:07.623Z,82.81
2022-08-21T02:56:07.365Z,82.81
2022-08-21T02:57:07.353Z,82.62
2022-08-21T02:58:07.599Z,82.9
2022-08-21T02:59:07.341Z,82.81
2022-08-21T03:00:07.334Z,82.71
2022-08-21T03:01:07.581Z,82.62
2022-08-21T03:02:07.765Z,82.9
2022-08-21T03:03:07.317Z,82.71
2022-08-21T03:04:07.317Z,83.09
2022-08-21T03:05:07.564Z,82.81
2022-08-21T03:06:07.555Z,82.71
2022-08-21T03:07:13.409Z,82.9
2022-08-21T03:08:07.285Z,82.62
2022-08-21T03:09:07.545Z,82.62
2022-08-21T03:10:07.527Z,82.62
2022-08-21T03:11:10.255Z,82.81
2022-08-21T03:12:07.517Z,82.71
2022-08-21T03:13:07.510Z,83.48
2022-08-21T03:14:07.251Z,83.58
2022-08-21T03:15:07.248Z,83.29
2022-08-21T03:16:12.151Z,82.9
2022-08-21T03:17:07.633Z,82.81
2022-08-21T03:18:07.481Z,82.81
2022-08-21T03:19:07.474Z,82.62
2022-08-21T03:20:07.468Z,82.9
2022-08-21T03:21:07.614Z,82.9
2022-08-21T03:22:07.458Z,83.58
2022-08-21T03:23:16.885Z,83.19
2022-08-21T03:24:07.446Z,83.48
2022-08-21T03:25:09.169Z,83.19
2022-08-21T03:26:07.180Z,83.48
2022-08-21T03:27:11.425Z,83.19
2022-08-21T03:28:07.600Z,82.81
2022-08-21T03:29:07.415Z,83
2022-08-21T03:30:07.407Z,83
2022-08-21T03:31:07.149Z,83.67
2022-08-21T03:32:07.409Z,83.48
2022-08-21T03:33:07.137Z,82.81
2022-08-21T03:50:07.202Z,84.15
2022-08-21T03:51:07.447Z,84.05
2022-08-21T03:52:07.433Z,84.15
2022-08-21T03:53:07.179Z,84.05
2022-08-21T03:54:07.416Z,84.44
2022-08-21T03:55:07.409Z,83.76
2022-08-21T03:56:07.187Z,84.44
2022-08-21T03:57:07.146Z,84.05
2022-08-21T03:58:19.208Z,83.95
2022-08-21T03:59:07.125Z,84.3
2022-08-21T04:00:07.371Z,84.25
2022-08-21T04:01:07.400Z,84.05
2022-08-21T04:02:07.496Z,83.58
2022-08-21T04:03:07.353Z,83.76
2022-08-21T04:04:07.511Z,83.48
2022-08-21T04:05:07.237Z,83.44
2022-08-21T04:06:07.336Z,83.53
2022-08-21T04:07:07.323Z,83.44
2022-08-21T04:08:07.317Z,83.53
2022-08-21T04:09:07.309Z,83.53
2022-08-21T04:10:07.631Z,83.63
2022-08-21T04:11:07.305Z,82.57
2022-08-21T04:12:07.031Z,82.86
2022-08-21T04:13:07.287Z,83
2022-08-21T04:14:07.280Z,82.38
2022-08-21T04:15:07.016Z,82.9
2022-08-21T04:16:08.540Z,82.9
2022-08-21T04:17:07.000Z,82.76
2022-08-21T04:18:06.995Z,82.57
2022-08-21T04:19:07.243Z,82.67
2022-08-21T04:20:07.237Z,83.15
2022-08-21T04:21:07.094Z,82.76
2022-08-21T04:22:06.967Z,82.62
2022-08-21T04:23:07.226Z,82.76
2022-08-21T04:24:07.208Z,82.96
2022-08-21T04:25:07.204Z,82.67
2022-08-21T04:26:06.941Z,82.67
2022-08-21T04:27:06.946Z,82.76
2022-08-21T04:28:06.936Z,82.96
2022-08-21T04:29:06.929Z,83.25
2022-08-21T04:30:06.927Z,83.34
2022-08-21T04:31:07.170Z,83.63
2022-08-21T04:32:06.907Z,83.34
2022-08-21T04:33:07.153Z,83.44
2022-08-21T04:34:06.895Z,82.76
2022-08-21T04:35:07.148Z,82.67
2022-08-21T04:36:06.879Z,82.57
2022-08-21T04:37:07.134Z,82.67
2022-08-21T04:38:07.132Z,82.57
2022-08-21T04:39:12.455Z,82.86
2022-08-21T04:40:07.584Z,82.19
2022-08-21T04:41:07.491Z,82.29
2022-08-21T04:42:07.717Z,82.38
2022-08-21T04:43:07.711Z,82.38
2022-08-21T04:44:07.701Z,82.29
2022-08-21T04:45:07.440Z,82.38
2022-08-21T04:46:07.437Z,82.38
2022-08-21T04:47:07.696Z,82.09
2022-08-21T04:48:10.815Z,82.09
2022-08-21T04:49:08.859Z,81.95
2022-08-21T04:50:07.562Z,82.42
2022-08-21T04:51:07.656Z,82.32
2022-08-21T04:52:07.678Z,82.14
2022-08-21T04:53:07.651Z,82.32
2022-08-21T04:54:07.642Z,82.23
2022-08-21T04:55:07.632Z,82.23
2022-08-21T04:56:08.263Z,82.42
2022-08-21T04:57:07.368Z,83
2022-08-21T04:58:07.368Z,82.62
2022-08-21T04:59:07.615Z,82.81
2022-08-21T05:00:10.113Z,82.71
2022-08-21T05:01:07.879Z,82.9
2022-08-21T05:02:07.597Z,82.81
2022-08-21T05:03:07.333Z,83.67
2022-08-21T05:04:07.580Z,83.58
2022-08-21T05:05:07.324Z,83.67
2022-08-21T05:06:08.964Z,83.48
2022-08-21T05:07:07.567Z,83.19
2022-08-21T05:08:07.303Z,83.58
2022-08-21T05:09:07.551Z,84.15
2022-08-21T05:10:07.295Z,84.63
2022-08-21T05:11:07.538Z,84.05
2022-08-21T05:12:07.534Z,84.25
2022-08-21T05:13:07.533Z,84.25
2022-08-21T05:14:07.289Z,84.25
2022-08-21T05:15:07.513Z,84.15
2022-08-21T05:16:07.514Z,84.05
2022-08-21T05:17:07.508Z,84.25
2022-08-21T05:18:07.500Z,84.05
2022-08-21T05:19:07.265Z,84.82
2022-08-21T05:20:07.488Z,84.53
2022-08-21T05:21:07.229Z,84.58
2022-08-21T05:22:07.228Z,84.91
2022-08-21T05:23:08.234Z,84.72
2022-08-21T05:24:07.211Z,84.63
2022-08-21T05:25:12.883Z,85.49
2022-08-21T05:26:08.496Z,86.16
2022-08-21T05:27:07.445Z,86.16
2022-08-21T05:28:08.276Z,86.4
2022-08-21T05:29:12.252Z,86.74
2022-08-21T05:30:07.430Z,86.68
2022-08-21T05:31:07.459Z,87.16
2022-08-21T05:32:07.433Z,87.64
2022-08-21T05:33:07.161Z,87.55
2022-08-21T05:34:07.407Z,87.64
2022-08-21T05:35:07.407Z,87.74
2022-08-21T05:36:07.143Z,88.02
2022-08-21T05:37:10.164Z,88.89
2022-08-21T05:38:07.132Z,88.7
2022-08-21T05:39:07.389Z,89.18
2022-08-21T05:40:25.016Z,89.27
2022-08-21T05:41:07.230Z,89.37
2022-08-21T05:42:07.361Z,89.56
2022-08-21T05:43:07.357Z,90.04
2022-08-21T05:44:13.032Z,89.85
2022-08-21T05:45:07.098Z,90.14
2022-08-21T05:46:07.340Z,90.33
2022-08-21T05:47:07.086Z,90.14
2022-08-21T05:48:07.076Z,90.23
2022-08-21T05:49:07.089Z,90.33
2022-08-21T05:50:07.066Z,89.56
2022-08-21T05:51:07.329Z,90.61
2022-08-21T05:52:07.051Z,90.81
2022-08-21T05:53:10.054Z,90.81
2022-08-21T05:54:07.051Z,90.71
2022-08-21T05:55:07.041Z,90.23
2022-08-21T05:56:07.297Z,90.75
2022-08-21T05:57:08.271Z,90.95
2022-08-21T05:58:08.004Z,91.52
2022-08-21T05:59:10.937Z,91.33
2022-08-21T06:00:08.253Z,91.33
2022-08-21T06:01:08.063Z,91.42
2022-08-21T06:02:08.521Z,92.1
2022-08-21T06:03:07.987Z,91.81
2022-08-21T06:04:08.228Z,92
2022-08-21T06:05:08.231Z,92.91
2022-08-21T06:06:08.224Z,93.68
2022-08-21T06:07:08.217Z,93.87
2022-08-21T06:08:07.952Z,94.54
2022-08-21T06:09:08.204Z,95.79
2022-08-21T06:10:07.951Z,96.08
2022-08-21T06:11:07.944Z,97.42
2022-08-21T06:12:07.933Z,99.05
2022-08-21T06:13:07.943Z,99.99
2022-08-21T06:14:08.181Z,99.99
2022-08-21T06:15:08.175Z,99.99
2022-08-21T06:16:08.172Z,99.99
2022-08-21T06:17:08.167Z,99.99
2022-08-21T06:18:08.165Z,99.99
2022-08-21T06:19:07.901Z,99.99
2022-08-21T06:20:08.154Z,99.99
2022-08-21T06:21:08.152Z,99.99
2022-08-21T06:22:08.138Z,99.99
2022-08-21T06:23:07.882Z,99.99
2022-08-21T06:24:08.136Z,99.99
2022-08-21T06:25:08.132Z,99.99
2022-08-21T06:26:08.125Z,99.99
2022-08-21T06:27:10.245Z,99.99
2022-08-21T06:28:08.114Z,99.99
2022-08-21T06:29:08.106Z,99.99
2022-08-21T06:30:07.852Z,99.99
2022-08-21T06:31:07.844Z,99.99
2022-08-21T06:32:07.840Z,99.99
2022-08-21T06:33:08.089Z,99.99
2022-08-21T06:34:08.087Z,99.99
2022-08-21T06:35:07.829Z,99.99
2022-08-21T06:36:07.824Z,99.99
2022-08-21T06:37:07.821Z,99.99
2022-08-21T06:38:08.157Z,99.99
2022-08-21T06:39:25.021Z,99.99
2022-08-21T06:40:14.848Z,99.99
2022-08-21T06:41:10.196Z,99.99
2022-08-21T06:42:12.534Z,99.99
2022-08-21T06:43:07.835Z,99.99
2022-08-21T06:44:07.784Z,99.99
2022-08-21T06:45:08.037Z,99.99
2022-08-21T06:46:07.784Z,99.99
2022-08-21T06:47:07.776Z,99.99
2022-08-21T06:48:07.770Z,99.99
2022-08-21T06:49:08.823Z,99.99
2022-08-21T06:50:08.021Z,99.99
2022-08-21T06:51:08.009Z,99.99
2022-08-21T06:52:08.011Z,99.99
2022-08-21T06:53:08.009Z,99.99
2022-08-21T06:54:08.556Z,99.99
2022-08-21T06:55:08.802Z,99.99
2022-08-21T06:56:08.804Z,99.99
2022-08-21T06:57:08.795Z,99.99
2022-08-21T06:58:08.537Z,99.99
2022-08-21T06:59:08.536Z,99.99
2022-08-21T07:00:08.534Z,99.99
2022-08-21T07:01:08.911Z,99.99
2022-08-21T07:02:08.777Z,99.99
2022-08-21T07:03:08.779Z,99.99
2022-08-21T07:04:08.777Z,99.99
2022-08-21T07:05:20.318Z,99.99
2022-08-21T07:06:09.021Z,99.99
2022-08-21T07:07:08.759Z,99.99
2022-08-21T07:08:08.507Z,99.99
2022-08-21T07:09:08.500Z,99.99
2022-08-21T07:10:08.503Z,99.99
2022-08-21T07:11:08.644Z,99.99
2022-08-21T07:12:08.745Z,99.99
2022-08-21T07:13:09.252Z,99.99
2022-08-21T07:14:08.743Z,99.99
2022-08-21T07:15:08.481Z,99.99
2022-08-21T07:16:08.728Z,99.99
2022-08-21T07:17:08.727Z,99.99
2022-08-21T07:18:08.727Z,99.99
2022-08-21T07:19:08.725Z,99.99
2022-08-21T07:20:08.715Z,99.99
2022-08-21T07:21:08.723Z,99.99
2022-08-21T07:22:08.460Z,99.99
2022-08-21T07:23:08.717Z,99.99
2022-08-21T07:24:08.451Z,99.99
2022-08-21T07:25:08.700Z,99.99
2022-08-21T07:26:08.699Z,99.99
2022-08-21T07:27:12.174Z,99.99
2022-08-21T07:28:08.693Z,99.99
2022-08-21T07:29:08.694Z,99.99
2022-08-21T07:30:08.683Z,99.99
2022-08-21T07:31:08.830Z,99.99
2022-08-21T07:32:08.428Z,99.99
2022-08-21T07:33:08.420Z,99.99
2022-08-21T07:34:08.421Z,99.99
2022-08-21T07:35:08.420Z,99.99
2022-08-21T07:36:08.666Z,99.99
2022-08-21T07:37:12.583Z,99.99
2022-08-21T07:38:08.654Z,99.99
2022-08-21T07:39:08.405Z,99.99
2022-08-21T07:40:08.884Z,99.99
2022-08-21T07:41:08.661Z,99.99
2022-08-21T07:42:10.949Z,99.99
2022-08-21T07:43:08.645Z,99.99
2022-08-21T07:44:09.030Z,99.99
2022-08-21T07:45:08.643Z,99.99
2022-08-21T07:46:09.038Z,99.99
2022-08-21T07:47:08.382Z,99.99
2022-08-21T07:48:08.379Z,99.99
2022-08-21T07:49:08.633Z,99.99
2022-08-21T07:50:08.373Z,99.99
2022-08-21T07:51:08.622Z,99.99
2022-08-21T07:52:08.618Z,99.99
2022-08-21T07:53:08.618Z,99.99
2022-08-21T07:54:09.622Z,99.99
2022-08-21T07:55:09.327Z,99.99
2022-08-21T07:56:08.612Z,99.99
2022-08-21T07:57:08.606Z,99.99
2022-08-21T07:58:08.604Z,99.99
2022-08-21T07:59:08.620Z,99.98
2022-08-21T08:00:08.347Z,98.44
2022-08-21T08:01:08.724Z,98.72
2022-08-21T08:02:08.595Z,99.93
2022-08-21T08:03:08.593Z,99.99
2022-08-21T08:04:08.588Z,99.99
2022-08-21T08:05:08.593Z,99.99
2022-08-21T08:06:08.328Z,99.99
2022-08-21T08:07:08.688Z,99.99
2022-08-21T08:08:08.581Z,99.99
2022-08-21T08:09:08.587Z,99.99
2022-08-21T08:10:08.578Z,99.99
2022-08-21T08:11:08.570Z,99.99
2022-08-21T08:12:08.571Z,99.99
2022-08-21T08:13:12.703Z,99.99
2022-08-21T08:14:08.563Z,99.99
2022-08-21T08:15:08.555Z,99.99
2022-08-21T08:16:08.300Z,99.99
2022-08-21T08:17:08.549Z,99.99
2022-08-21T08:18:08.549Z,99.99
2022-08-21T08:19:08.291Z,99.99
2022-08-21T08:20:08.289Z,99.99
2022-08-21T08:21:08.285Z,99.99
2022-08-21T08:22:08.542Z,99.99
2022-08-21T08:23:08.532Z,99.99
2022-08-21T08:24:21.013Z,99.99
2022-08-21T08:25:11.865Z,99.99
2022-08-21T08:26:08.538Z,99.99
2022-08-21T08:27:08.533Z,98.63
2022-08-21T08:28:19.541Z,97.04
2022-08-21T08:29:08.521Z,96.27
2022-08-21T08:30:08.270Z,92.89
2022-08-21T08:31:08.516Z,90
2022-08-21T08:32:08.265Z,89.61
2022-08-21T08:33:08.261Z,89.76
2022-08-21T08:34:08.525Z,89.57
2022-08-21T08:35:08.254Z,90.34
2022-08-21T08:36:10.462Z,91.83
2022-08-21T08:37:10.247Z,93.09
2022-08-21T08:38:09.032Z,92.9
2022-08-21T08:39:11.029Z,90.58
2022-08-21T08:40:08.641Z,88.75
2022-08-21T08:41:08.497Z,88.85
2022-08-21T08:42:36.553Z,89.14
2022-08-21T08:43:08.499Z,88.75
2022-08-21T08:44:08.256Z,89.23
2022-08-21T08:45:08.488Z,88.65
2022-08-21T08:46:08.486Z,88.46
2022-08-21T08:47:08.481Z,88.46
2022-08-21T08:48:16.098Z,87.4
2022-08-21T08:49:09.662Z,86.87
2022-08-21T08:50:08.229Z,86.1
2022-08-21T08:51:08.480Z,84.98
2022-08-21T08:52:08.473Z,84.69
2022-08-21T08:53:08.580Z,83.58
2022-08-21T08:54:08.472Z,83.29
2022-08-21T08:55:08.468Z,82.71
2022-08-21T08:56:08.467Z,81.84
2022-08-21T08:57:08.467Z,81.55
2022-08-21T08:58:08.466Z,80.87
2022-08-21T08:59:08.480Z,81.26
2022-08-21T09:00:10.278Z,81.74
2022-08-21T09:01:08.626Z,81.65
2022-08-21T09:02:08.454Z,81.16
2022-08-21T09:03:08.457Z,81.65
2022-08-21T09:04:08.202Z,82.13
2022-08-21T09:05:08.459Z,81.4
2022-08-21T09:06:09.739Z,80.82
2022-08-21T09:07:08.450Z,80.24
2022-08-21T09:08:09.418Z,79.75
2022-08-21T09:09:08.447Z,80.05
2022-08-21T09:10:08.445Z,79.85
2022-08-21T09:11:08.194Z,79.52
2022-08-21T09:12:08.635Z,79.43
2022-08-21T09:13:08.381Z,79.43
2022-08-21T09:14:08.390Z,79.62
2022-08-21T09:15:08.630Z,80.54
2022-08-21T09:16:08.629Z,80.45
2022-08-21T09:17:08.373Z,81.12
2022-08-21T09:18:10.077Z,81.12
2022-08-21T09:19:08.372Z,81.22
2022-08-21T09:20:08.618Z,81.47
2022-08-21T09:21:08.367Z,83.01
2022-08-21T09:22:08.378Z,83.5
2022-08-21T09:23:08.620Z,82.62
2022-08-21T09:24:08.614Z,82.43
2022-08-21T09:25:08.624Z,81.76
2022-08-21T09:26:08.358Z,81.81
2022-08-21T09:27:08.358Z,81.81
2022-08-21T09:28:08.612Z,82.49
2022-08-21T09:29:08.357Z,82.87
2022-08-21T09:30:08.619Z,83.45
2022-08-21T09:31:08.615Z,83.45
2022-08-21T09:32:08.349Z,83.55
2022-08-21T09:33:08.605Z,83.64
2022-08-21T09:34:08.596Z,83.07
2022-08-21T09:35:08.598Z,82.59
2022-08-21T09:36:08.597Z,82.39
2022-08-21T09:37:08.606Z,82.49
2022-08-21T09:38:08.587Z,80.85
2022-08-21T09:39:08.347Z,81.14
2022-08-21T09:40:08.688Z,81.52
2022-08-21T09:41:08.332Z,80.18
2022-08-21T09:42:08.330Z,79.11
2022-08-21T09:43:09.456Z,78.63
2022-08-21T09:44:08.953Z,78.83
2022-08-21T09:45:08.958Z,78.58
2022-08-21T09:46:08.944Z,78.38
2022-08-21T09:47:08.959Z,78.48
2022-08-21T09:48:08.685Z,78.73
2022-08-21T09:49:16.521Z,79.35
2022-08-21T09:50:08.683Z,79.64
2022-08-21T09:51:08.933Z,79.64
2022-08-21T09:52:08.940Z,78.73
2022-08-21T09:53:08.929Z,79.69
2022-08-21T09:54:08.931Z,79.5
2022-08-21T09:55:08.929Z,80.46
2022-08-21T09:56:10.412Z,81.2
2022-08-21T09:57:08.921Z,82.45
2022-08-21T09:58:08.927Z,83.51
2022-08-21T09:59:08.666Z,83.7
2022-08-21T10:00:08.743Z,84.28
2022-08-21T10:01:09.040Z,83.89
2022-08-21T10:02:08.657Z,84.09
2022-08-21T10:03:08.909Z,83.99
2022-08-21T10:04:08.914Z,83.99
2022-08-21T10:05:08.903Z,83.51
2022-08-21T10:06:11.645Z,82.83
2022-08-21T10:07:08.909Z,82.45
2022-08-21T10:08:09.183Z,81.04
2022-08-21T10:09:11.368Z,80.56
2022-08-21T10:10:09.174Z,79.93
2022-08-21T10:11:09.177Z,78.42
2022-08-21T10:12:13.476Z,79.77
2022-08-21T10:13:09.227Z,78.94
2022-08-21T10:14:09.172Z,77.53
2022-08-21T10:15:11.258Z,75.93
2022-08-21T10:16:09.163Z,74.62
2022-08-21T10:17:09.158Z,74.27
2022-08-21T10:18:09.171Z,72.04
2022-08-21T10:19:08.908Z,70.46
2022-08-21T10:20:08.906Z,70.36
2022-08-21T10:21:14.121Z,70.42
2022-08-21T10:22:09.158Z,70.48
2022-08-21T10:23:08.899Z,70.58
2022-08-21T10:24:09.155Z,70.39
2022-08-21T10:25:09.161Z,70.26
2022-08-21T10:26:16.808Z,70.84
2022-08-21T10:27:09.147Z,71.48
2022-08-21T10:28:14.089Z,72.83
2022-08-21T10:29:09.145Z,73.66
2022-08-21T10:30:09.155Z,73.85
2022-08-21T10:31:09.154Z,74.14
2022-08-21T10:32:28.163Z,76.23
2022-08-21T10:33:09.143Z,76.8
2022-08-21T10:34:08.890Z,77.19
2022-08-21T10:35:08.878Z,77.92
2022-08-21T10:36:08.884Z,78.59
2022-08-21T10:37:13.444Z,79.75
2022-08-21T10:38:09.135Z,80.52
2022-08-21T10:39:37.343Z,80.23
2022-08-21T10:40:20.447Z,79.79
2022-08-21T10:41:20.589Z,79.02
2022-08-21T10:42:22.650Z,78.86
2022-08-21T10:43:20.326Z,76.88
2022-08-21T10:44:22.688Z,74.95
2022-08-21T10:45:20.585Z,73.25
2022-08-21T10:46:20.573Z,72.32
2022-08-21T10:47:20.324Z,71.45
2022-08-21T10:48:20.567Z,70.23
2022-08-21T10:49:20.570Z,69.36
2022-08-21T10:50:20.573Z,68.43
2022-08-21T10:51:20.573Z,67.66
2022-08-21T10:52:20.563Z,67.04
2022-08-21T10:53:20.569Z,67.72
2022-08-21T10:54:25.355Z,68.65
2022-08-21T10:55:20.308Z,69.32
2022-08-21T10:56:20.309Z,71.03
2022-08-21T10:57:34.357Z,72
2022-08-21T10:58:20.556Z,73.31
2022-08-21T10:59:20.565Z,74.62
2022-08-21T11:00:20.557Z,75.3
2022-08-21T11:01:20.392Z,76.32
2022-08-21T11:02:20.299Z,77.76
2022-08-21T11:03:20.301Z,77.76
2022-08-21T11:04:20.545Z,79.31
2022-08-21T11:05:20.291Z,79.46
2022-08-21T11:06:20.540Z,80.43
2022-08-21T11:07:21.510Z,80.43
2022-08-21T11:08:20.542Z,80.14
2022-08-21T11:09:21.675Z,79.94
2022-08-21T11:10:22.294Z,79.46
2022-08-21T11:11:24.887Z,79.6
2022-08-21T11:12:23.416Z,78.86
2022-08-21T11:13:20.274Z,77.33
2022-08-21T11:14:20.271Z,75.82
2022-08-21T11:15:31.835Z,74.37
2022-08-21T11:16:20.303Z,74.37
2022-08-21T11:17:24.112Z,74.27
2022-08-21T11:18:20.265Z,73.11
2022-08-21T11:19:20.399Z,74.08
2022-08-21T11:20:20.523Z,74.57
2022-08-21T11:21:20.260Z,74.18
2022-08-21T11:22:20.511Z,74.08
2022-08-21T11:23:20.507Z,74.18
2022-08-21T11:24:20.251Z,73.89
2022-08-21T11:25:20.506Z,74.21
2022-08-21T11:26:20.254Z,73.93
2022-08-21T11:27:20.247Z,72.77
2022-08-21T11:28:20.244Z,72.58
2022-08-21T11:29:20.502Z,72.09
2022-08-21T11:30:20.247Z,72.38
2022-08-21T11:31:20.246Z,72.77
2022-08-21T11:32:20.386Z,72.19
2022-08-21T11:33:20.239Z,72
2022-08-21T11:34:20.487Z,71.61
2022-08-21T11:35:20.492Z,71.36
2022-08-21T11:36:20.482Z,71.26
2022-08-21T11:37:20.227Z,70.68
2022-08-21T11:38:20.481Z,70.74
2022-08-21T11:39:20.224Z,70.26
2022-08-21T11:40:20.324Z,71.61
2022-08-21T11:41:20.224Z,72.13
2022-08-21T11:42:20.474Z,73
2022-08-21T11:43:20.471Z,73
2022-08-21T11:44:20.217Z,72.71
2022-08-21T11:45:20.480Z,71.36
2022-08-21T11:46:20.477Z,70.62
2022-08-21T11:47:20.460Z,68.49
2022-08-21T11:48:20.467Z,67.33
2022-08-21T11:49:20.466Z,66.82
2022-08-21T11:50:37.844Z,68.17
2022-08-21T11:51:20.202Z,67.43
2022-08-21T11:52:20.468Z,65.59
2022-08-21T11:53:20.200Z,65.11
2022-08-21T11:54:20.457Z,65.27
2022-08-21T11:55:25.815Z,66.24
2022-08-21T11:56:20.197Z,66.46
2022-08-21T11:57:20.451Z,66.17
2022-08-21T11:58:20.453Z,66.17
2022-08-21T11:59:20.195Z,65.4
2022-08-21T12:00:20.192Z,65.5
2022-08-21T12:01:20.325Z,65.69
2022-08-21T12:02:20.362Z,65.59
2022-08-21T12:03:20.184Z,66.14
2022-08-21T12:04:21.301Z,66.14
2022-08-21T12:05:20.446Z,66.24
2022-08-21T12:06:26.628Z,65.17
2022-08-21T12:07:20.433Z,66.01
2022-08-21T12:08:20.188Z,65.37
2022-08-21T12:09:20.178Z,64.5
2022-08-21T12:10:20.181Z,64.69
2022-08-21T12:11:20.426Z,64.79
2022-08-21T12:12:20.915Z,64.11
2022-08-21T12:13:20.430Z,62.86
2022-08-21T12:14:20.177Z,62.37
2022-08-21T12:15:20.169Z,62.95
2022-08-21T12:16:20.177Z,62.82
2022-08-21T12:17:22.831Z,63.6
2022-08-21T12:18:20.425Z,64.47
2022-08-21T12:19:20.173Z,65.11
2022-08-21T12:20:20.530Z,65.69
2022-08-21T12:21:20.532Z,66.75
2022-08-21T12:22:20.522Z,67.1
2022-08-21T12:23:20.270Z,67
2022-08-21T12:24:20.526Z,67.68
2022-08-21T12:25:24.145Z,68.45
2022-08-21T12:26:20.522Z,69.13
2022-08-21T12:27:20.813Z,70.19
2022-08-21T12:28:20.513Z,70.09
2022-08-21T12:29:20.520Z,70.09
2022-08-21T12:30:20.261Z,69.55
2022-08-21T12:31:20.509Z,68.77
2022-08-21T12:32:20.501Z,67.71
2022-08-21T12:33:20.513Z,66.59
2022-08-21T12:34:20.254Z,66.3
2022-08-21T12:35:27.652Z,65.24
2022-08-21T12:36:20.500Z,63.73
2022-08-21T12:37:20.503Z,63.82
2022-08-21T12:38:20.499Z,63.53
2022-08-21T12:39:20.246Z,63.92
2022-08-21T12:40:20.674Z,64.31
2022-08-21T12:41:20.244Z,64.98
2022-08-21T12:42:20.487Z,64.76
2022-08-21T12:43:20.492Z,65.53
2022-08-21T12:44:20.233Z,65.53
2022-08-21T12:45:20.498Z,65.98
2022-08-21T12:46:20.484Z,66.75
2022-08-21T12:47:20.485Z,66.66
2022-08-21T12:48:24.827Z,66.94
2022-08-21T12:49:20.483Z,67.97
2022-08-21T12:50:20.225Z,68.07
2022-08-21T12:51:20.226Z,67.88
2022-08-21T12:52:20.478Z,67.33
2022-08-21T12:53:22.821Z,66.94
2022-08-21T12:54:20.472Z,67.04
2022-08-21T12:55:20.220Z,66.78
2022-08-21T12:56:20.215Z,66.11
2022-08-21T12:57:21.026Z,65.34
2022-08-21T12:58:21.025Z,64.69
2022-08-21T12:59:21.027Z,64.79
2022-08-21T13:00:23.265Z,63.73
2022-08-21T13:01:20.872Z,62.95
2022-08-21T13:02:20.887Z,62.95
2022-08-21T13:03:21.037Z,63.63
2022-08-21T13:04:20.762Z,63.82
2022-08-21T13:05:21.019Z,61.8
2022-08-21T13:06:21.025Z,62.28
2022-08-21T13:07:21.495Z,62.76
2022-08-21T13:08:21.015Z,63.05
2022-08-21T13:09:21.016Z,63.24
2022-08-21T13:10:21.008Z,63.73
2022-08-21T13:11:35.976Z,64.59